Time;durP1;ratioP1;P1;durP2;ratioP2;P2;SDS_P1;SDS_P2;PMS_P1;PMS_P2;Temp;Humidity;BMP_temperature;BMP_pressure;BME280_temperature;BME280_humidity;BME280_pressure;Samples;Min_cycle;Max_cycle;Signal;HPM_P1;HPM_P2
2021/05/30 00:01:07;;;;;;;;;;;16.80;67.90;;;;;;4274003;33;43591;-70
2021/05/30 00:03:34;;;;;;;;;;;16.80;67.90;;;;;;4272263;33;43595;-70
2021/05/30 00:06:04;;;;;;;;;;;16.80;67.80;;;;;;4272920;33;38788;-70
2021/05/30 00:08:31;;;;;;;;;;;16.80;67.80;;;;;;4271260;33;43560;-70
2021/05/30 00:10:59;;;;;;;;;;;16.80;67.70;;;;;;4272290;33;34384;-72
2021/05/30 00:13:26;;;;;;;;;;;16.80;67.70;;;;;;4272010;33;42470;-70
2021/05/30 00:15:56;;;;;;;;;;;16.70;67.80;;;;;;4270928;33;44271;-70
2021/05/30 00:18:25;;;;;;;;;;;16.70;67.70;;;;;;4272267;33;44612;-70
2021/05/30 00:20:52;;;;;;;;;;;16.70;67.70;;;;;;4273524;33;20045;-69
2021/05/30 00:23:19;;;;;;;;;;;16.60;67.60;;;;;;4272363;33;44675;-70
2021/05/30 00:25:49;;;;;;;;;;;16.60;67.70;;;;;;4271875;33;44671;-70
2021/05/30 00:28:16;;;;;;;;;;;16.60;67.80;;;;;;4272359;33;44714;-70
2021/05/30 00:30:43;;;;;;;;;;;16.50;67.80;;;;;;4273327;33;44498;-70
2021/05/30 00:33:10;;;;;;;;;;;16.50;67.70;;;;;;4262019;33;44089;-70
2021/05/30 00:35:39;;;;;;;;;;;16.50;67.80;;;;;;4274794;33;44716;-70
2021/05/30 00:38:06;;;;;;;;;;;16.50;67.80;;;;;;4274982;33;43834;-70
2021/05/30 00:40:33;;;;;;;;;;;16.40;67.80;;;;;;4262700;33;20098;-70
2021/05/30 00:43:00;;;;;;;;;;;16.40;68.00;;;;;;4274708;33;39770;-70
2021/05/30 00:45:28;;;;;;;;;;;16.30;68.20;;;;;;4251296;33;20003;-70
2021/05/30 00:47:55;;;;;;;;;;;16.30;68.10;;;;;;4274650;33;43151;-70
2021/05/30 00:50:22;;;;;;;;;;;16.30;68.10;;;;;;4274807;33;44070;-70
2021/05/30 00:52:49;;;;;;;;;;;16.30;68.30;;;;;;4274755;33;43652;-70
2021/05/30 00:55:16;;;;;;;;;;;16.20;68.50;;;;;;4274603;33;43662;-70
2021/05/30 00:57:46;;;;;;;;;;;16.30;68.70;;;;;;4274499;33;43350;-70
2021/05/30 01:00:14;;;;;;;;;;;16.20;68.90;;;;;;4275226;33;22602;-70
2021/05/30 01:02:41;;;;;;;;;;;16.20;69.10;;;;;;4283196;33;44680;-70
2021/05/30 01:05:09;;;;;;;;;;;16.20;68.90;;;;;;4288827;33;43394;-69
2021/05/30 01:07:41;;;;;;;;;;;16.20;68.80;;;;;;4275298;33;44647;-70
2021/05/30 01:10:15;;;;;;;;;;;16.20;68.70;;;;;;4275946;33;43171;-70
2021/05/30 01:12:42;;;;;;;;;;;16.20;68.80;;;;;;4288405;33;43510;-70
2021/05/30 01:15:10;;;;;;;;;;;16.20;68.70;;;;;;4275461;33;43369;-70
2021/05/30 01:17:40;;;;;;;;;;;16.20;68.60;;;;;;4275201;33;43386;-70
2021/05/30 01:20:10;;;;;;;;;;;16.10;68.50;;;;;;4288268;33;42122;-70
2021/05/30 01:22:37;;;;;;;;;;;16.10;68.50;;;;;;4275235;33;43233;-70
2021/05/30 01:25:05;;;;;;;;;;;16.10;68.50;;;;;;4288182;33;44061;-70
2021/05/30 01:27:32;;;;;;;;;;;16.10;68.50;;;;;;4288625;33;44632;-70
2021/05/30 01:29:59;;;;;;;;;;;16.00;68.50;;;;;;4289693;33;20427;-70
2021/05/30 01:32:28;;;;;;;;;;;16.00;68.50;;;;;;4288619;33;33458;-70
2021/05/30 01:34:58;;;;;;;;;;;16.00;68.50;;;;;;4288405;33;42417;-70
2021/05/30 01:37:25;;;;;;;;;;;15.90;68.40;;;;;;4288013;33;43612;-70
2021/05/30 01:39:53;;;;;;;;;;;15.90;68.60;;;;;;4275089;33;45019;-70
2021/05/30 01:42:22;;;;;;;;;;;15.90;68.80;;;;;;4289014;33;20041;-70
2021/05/30 01:44:55;;;;;;;;;;;15.90;68.70;;;;;;4289149;33;20025;-70
2021/05/30 01:47:25;;;;;;;;;;;15.90;68.80;;;;;;4289595;33;20104;-70
2021/05/30 01:49:54;;;;;;;;;;;15.80;68.70;;;;;;4288808;33;20006;-70
2021/05/30 01:52:22;;;;;;;;;;;15.80;68.80;;;;;;4288923;33;24914;-70
2021/05/30 01:54:51;;;;;;;;;;;15.80;68.90;;;;;;4288967;33;20006;-70
2021/05/30 01:57:19;;;;;;;;;;;15.80;69.00;;;;;;4275996;33;20014;-70
2021/05/30 01:59:50;;;;;;;;;;;15.70;69.30;;;;;;4288196;33;24870;-70
2021/05/30 02:02:17;;;;;;;;;;;15.70;69.30;;;;;;4288511;33;22672;-70
2021/05/30 02:04:48;;;;;;;;;;;15.70;69.00;;;;;;4289354;33;20405;-70
2021/05/30 02:07:16;;;;;;;;;;;15.70;68.90;;;;;;4289020;33;20025;-70
2021/05/30 02:09:43;;;;;;;;;;;15.70;68.90;;;;;;4289087;33;20033;-70
2021/05/30 02:12:11;;;;;;;;;;;15.60;69.00;;;;;;4275704;33;20092;-70
2021/05/30 02:14:40;;;;;;;;;;;15.60;69.20;;;;;;4287966;33;23211;-70
2021/05/30 02:17:07;;;;;;;;;;;15.60;69.40;;;;;;4275111;33;22753;-70
2021/05/30 02:19:35;;;;;;;;;;;15.60;69.40;;;;;;4275206;33;23446;-69
2021/05/30 02:22:02;;;;;;;;;;;15.60;69.60;;;;;;4288157;33;24270;-70
2021/05/30 02:24:29;;;;;;;;;;;15.60;69.60;;;;;;4275129;33;25594;-70
2021/05/30 02:26:58;;;;;;;;;;;15.60;69.30;;;;;;4288283;33;20024;-70
2021/05/30 02:29:35;;;;;;;;;;;15.60;69.20;;;;;;4288387;33;22225;-70
2021/05/30 02:32:03;;;;;;;;;;;15.50;69.10;;;;;;4275200;33;19999;-69
2021/05/30 02:34:31;;;;;;;;;;;15.50;69.20;;;;;;4288161;33;22203;-70
2021/05/30 02:36:58;;;;;;;;;;;15.50;69.40;;;;;;4275615;33;20011;-70
2021/05/30 02:39:26;;;;;;;;;;;15.50;69.50;;;;;;4288569;33;20006;-70
2021/05/30 02:41:53;;;;;;;;;;;15.40;69.50;;;;;;4287934;33;20011;-70
2021/05/30 02:44:20;;;;;;;;;;;15.40;69.70;;;;;;4274660;33;21812;-70
2021/05/30 02:46:47;;;;;;;;;;;15.40;69.80;;;;;;4287990;33;20070;-70
2021/05/30 02:49:19;;;;;;;;;;;15.40;70.00;;;;;;4275432;33;20017;-70
2021/05/30 02:51:49;;;;;;;;;;;15.40;70.20;;;;;;4274860;33;27385;-70
2021/05/30 02:54:17;;;;;;;;;;;15.40;70.30;;;;;;4287475;33;20014;-70
2021/05/30 02:56:44;;;;;;;;;;;15.40;70.50;;;;;;4288187;33;21795;-70
2021/05/30 02:59:13;;;;;;;;;;;15.40;70.40;;;;;;4275172;33;22595;-70
2021/05/30 03:01:40;;;;;;;;;;;15.40;70.40;;;;;;4274715;33;20590;-70
2021/05/30 03:04:07;;;;;;;;;;;15.40;70.50;;;;;;4288005;33;22527;-70
2021/05/30 03:06:34;;;;;;;;;;;15.40;70.40;;;;;;4275489;33;20434;-69
2021/05/30 03:09:02;;;;;;;;;;;15.40;70.40;;;;;;4287741;33;20014;-70
2021/05/30 03:11:29;;;;;;;;;;;15.40;70.20;;;;;;4274529;33;20452;-69
2021/05/30 03:13:57;;;;;;;;;;;15.40;70.30;;;;;;4275225;33;20389;-69
2021/05/30 03:16:24;;;;;;;;;;;15.40;70.20;;;;;;4287661;33;20330;-69
2021/05/30 03:18:52;;;;;;;;;;;15.30;70.00;;;;;;4288161;33;20009;-69
2021/05/30 03:21:19;;;;;;;;;;;15.30;70.10;;;;;;4288301;33;20002;-70
2021/05/30 03:23:46;;;;;;;;;;;15.30;70.30;;;;;;4287493;33;20014;-70
2021/05/30 03:26:13;;;;;;;;;;;15.30;70.20;;;;;;4287652;33;20045;-70
2021/05/30 03:28:40;;;;;;;;;;;15.30;70.30;;;;;;4287595;33;20388;-69
2021/05/30 03:31:10;;;;;;;;;;;15.20;70.30;;;;;;4287837;33;20404;-69
2021/05/30 03:33:37;;;;;;;;;;;15.20;70.40;;;;;;4287985;33;20014;-70
2021/05/30 03:36:11;;;;;;;;;;;15.20;70.50;;;;;;4288129;33;20022;-70
2021/05/30 03:38:38;;;;;;;;;;;15.20;70.70;;;;;;4288098;33;21455;-70
2021/05/30 03:41:07;;;;;;;;;;;15.20;70.60;;;;;;4274979;33;21737;-70
2021/05/30 03:43:34;;;;;;;;;;;15.10;70.60;;;;;;4262726;33;22023;-70
2021/05/30 03:46:05;;;;;;;;;;;15.10;70.50;;;;;;4287221;33;22282;-70
2021/05/30 03:48:32;;;;;;;;;;;15.10;70.50;;;;;;4287749;33;20026;-70
2021/05/30 03:51:02;;;;;;;;;;;15.10;70.50;;;;;;4274590;33;28472;-69
2021/05/30 03:53:29;;;;;;;;;;;15.10;70.50;;;;;;4288025;33;20359;-69
2021/05/30 03:56:00;;;;;;;;;;;15.10;70.50;;;;;;4275240;33;20405;-70
2021/05/30 03:58:27;;;;;;;;;;;15.10;70.80;;;;;;4287998;33;20021;-69
2021/05/30 04:00:54;;;;;;;;;;;15.00;71.00;;;;;;4274200;33;21677;-70
2021/05/30 04:03:21;;;;;;;;;;;15.00;71.30;;;;;;4287479;33;20085;-70
2021/05/30 04:05:48;;;;;;;;;;;15.00;71.30;;;;;;4288666;33;20010;-70
2021/05/30 04:08:15;;;;;;;;;;;15.00;71.30;;;;;;4290428;33;20021;-70
2021/05/30 04:10:45;;;;;;;;;;;15.00;71.30;;;;;;4291017;33;20012;-70
2021/05/30 04:13:12;;;;;;;;;;;15.00;71.40;;;;;;4290650;33;20074;-70
2021/05/30 04:15:39;;;;;;;;;;;15.00;71.50;;;;;;4290374;33;20014;-70
2021/05/30 04:18:06;;;;;;;;;;;15.00;71.50;;;;;;4276795;33;27731;-70
2021/05/30 04:20:33;;;;;;;;;;;15.00;72.40;;;;;;4290177;33;24277;-70
2021/05/30 04:23:00;;;;;;;;;;;14.90;71.60;;;;;;4290141;33;20019;-69
2021/05/30 04:25:28;;;;;;;;;;;14.90;72.00;;;;;;4289943;33;23779;-69
2021/05/30 04:27:55;;;;;;;;;;;14.90;72.30;;;;;;4290141;33;20014;-69
2021/05/30 04:30:22;;;;;;;;;;;14.80;72.70;;;;;;4265303;33;20058;-70
2021/05/30 04:32:54;;;;;;;;;;;14.90;72.90;;;;;;4277348;33;21775;-70
2021/05/30 04:35:22;;;;;;;;;;;14.80;73.10;;;;;;4277136;33;25409;-69
2021/05/30 04:37:49;;;;;;;;;;;14.90;73.30;;;;;;4276965;33;21626;-69
2021/05/30 04:40:17;;;;;;;;;;;14.80;73.40;;;;;;4290038;33;20496;-69
2021/05/30 04:42:45;;;;;;;;;;;14.90;73.60;;;;;;4276539;33;20393;-70
2021/05/30 04:45:12;;;;;;;;;;;14.80;73.60;;;;;;4277018;33;20157;-69
2021/05/30 04:47:39;;;;;;;;;;;14.90;73.80;;;;;;4289714;33;20002;-70
2021/05/30 04:50:07;;;;;;;;;;;14.80;74.00;;;;;;4290103;33;20006;-69
2021/05/30 04:52:37;;;;;;;;;;;14.80;74.00;;;;;;4277623;33;20070;-69
2021/05/30 04:55:05;;;;;;;;;;;14.80;74.10;;;;;;4289185;33;44706;-69
2021/05/30 04:57:32;;;;;;;;;;;14.90;74.30;;;;;;4275589;33;42461;-70
2021/05/30 04:59:59;;;;;;;;;;;14.90;74.40;;;;;;4275401;33;44312;-69
2021/05/30 05:02:27;;;;;;;;;;;14.90;74.50;;;;;;4288391;33;43552;-69
2021/05/30 05:04:54;;;;;;;;;;;14.90;74.60;;;;;;4276075;33;43365;-69
2021/05/30 05:07:21;;;;;;;;;;;14.90;74.70;;;;;;4288946;33;24768;-70
2021/05/30 05:09:48;;;;;;;;;;;14.80;74.80;;;;;;4288911;33;44318;-70
2021/05/30 05:12:15;;;;;;;;;;;14.80;74.90;;;;;;4288787;33;42213;-69
2021/05/30 05:14:42;;;;;;;;;;;14.90;75.10;;;;;;4275277;33;45060;-69
2021/05/30 05:17:12;;;;;;;;;;;14.80;75.20;;;;;;4287435;33;44605;-70
2021/05/30 05:19:39;;;;;;;;;;;14.90;75.50;;;;;;4275819;33;44659;-69
2021/05/30 05:22:06;;;;;;;;;;;14.80;75.60;;;;;;4288541;33;43538;-70
2021/05/30 05:24:53;;;;;;;;;;;14.80;75.70;;;;;;4289196;33;26701;-69
2021/05/30 05:27:20;;;;;;;;;;;14.90;75.90;;;;;;4288349;33;44292;-70
2021/05/30 05:29:47;;;;;;;;;;;14.90;76.00;;;;;;4263380;33;44634;-69
2021/05/30 05:32:14;;;;;;;;;;;14.90;76.30;;;;;;4275652;33;43985;-70
2021/05/30 05:34:41;;;;;;;;;;;14.90;76.40;;;;;;4288766;33;36517;-70
2021/05/30 05:37:08;;;;;;;;;;;14.90;76.50;;;;;;4275386;33;43496;-70
2021/05/30 05:39:35;;;;;;;;;;;14.90;76.50;;;;;;4275896;33;43367;-69
2021/05/30 05:42:05;;;;;;;;;;;14.90;76.70;;;;;;4276202;33;19995;-70
2021/05/30 05:44:32;;;;;;;;;;;14.90;76.70;;;;;;4288045;33;42492;-70
2021/05/30 05:47:00;;;;;;;;;;;14.90;76.90;;;;;;4275113;33;43284;-70
2021/05/30 05:49:27;;;;;;;;;;;14.90;77.00;;;;;;4287839;33;43593;-70
2021/05/30 05:51:57;;;;;;;;;;;14.90;77.10;;;;;;4275117;33;43859;-70
2021/05/30 05:54:44;;;;;;;;;;;14.90;77.30;;;;;;4288692;33;35500;-70
2021/05/30 05:57:11;;;;;;;;;;;14.90;77.60;;;;;;4275034;33;43524;-70
2021/05/30 05:59:38;;;;;;;;;;;14.90;77.50;;;;;;4287654;33;44703;-70
2021/05/30 06:02:10;;;;;;;;;;;14.90;77.70;;;;;;4276184;33;20070;-70
2021/05/30 06:04:37;;;;;;;;;;;14.90;77.70;;;;;;4288207;33;44249;-70
2021/05/30 06:07:05;;;;;;;;;;;14.90;77.70;;;;;;4287683;33;42774;-70
2021/05/30 06:09:32;;;;;;;;;;;15.00;77.80;;;;;;4275591;33;25978;-69
2021/05/30 06:12:00;;;;;;;;;;;15.00;78.40;;;;;;4288852;33;20019;-70
2021/05/30 06:14:27;;;;;;;;;;;15.00;77.90;;;;;;4288003;33;44111;-70
2021/05/30 06:16:57;;;;;;;;;;;15.00;78.10;;;;;;4287904;33;44313;-70
2021/05/30 06:19:26;;;;;;;;;;;15.00;78.40;;;;;;4287612;33;42153;-70
2021/05/30 06:21:58;;;;;;;;;;;15.00;78.30;;;;;;4288882;33;20018;-70
2021/05/30 06:24:25;;;;;;;;;;;15.00;78.20;;;;;;4288045;33;20810;-70
2021/05/30 06:26:58;;;;;;;;;;;15.00;78.30;;;;;;4288348;33;20028;-70
2021/05/30 06:29:25;;;;;;;;;;;15.10;78.40;;;;;;4288209;33;22573;-70
2021/05/30 06:31:56;;;;;;;;;;;15.00;78.30;;;;;;4275486;33;20010;-70
2021/05/30 06:34:27;;;;;;;;;;;15.10;78.30;;;;;;4275552;33;20069;-70
2021/05/30 06:36:56;;;;;;;;;;;15.10;78.50;;;;;;4288454;33;20018;-70
2021/05/30 06:39:25;;;;;;;;;;;15.10;78.50;;;;;;4275130;33;24466;-70
2021/05/30 06:41:58;;;;;;;;;;;15.10;78.50;;;;;;4275307;33;20320;-70
2021/05/30 06:44:28;;;;;;;;;;;15.10;78.60;;;;;;4275239;33;25073;-70
2021/05/30 06:46:55;;;;;;;;;;;15.10;78.60;;;;;;4275522;33;20016;-70
2021/05/30 06:49:25;;;;;;;;;;;15.10;78.70;;;;;;4287962;33;20334;-70
2021/05/30 06:51:52;;;;;;;;;;;15.10;78.60;;;;;;4288635;33;20065;-70
2021/05/30 06:54:20;;;;;;;;;;;15.10;78.60;;;;;;4275211;33;20020;-70
2021/05/30 06:56:47;;;;;;;;;;;15.20;78.60;;;;;;4287795;33;20021;-70
2021/05/30 06:59:14;;;;;;;;;;;15.20;78.80;;;;;;4288113;33;20061;-70
2021/05/30 07:01:41;;;;;;;;;;;15.20;78.80;;;;;;4288385;33;20003;-70
2021/05/30 07:04:08;;;;;;;;;;;15.20;78.80;;;;;;4288187;33;20347;-69
2021/05/30 07:06:35;;;;;;;;;;;15.20;78.70;;;;;;4274822;33;21107;-70
2021/05/30 07:09:06;;;;;;;;;;;15.20;78.50;;;;;;4288462;33;20058;-69
2021/05/30 07:11:33;;;;;;;;;;;15.20;78.40;;;;;;4274823;33;20025;-70
2021/05/30 07:14:01;;;;;;;;;;;15.30;78.60;;;;;;4287488;33;20045;-70
2021/05/30 07:16:30;;;;;;;;;;;15.30;78.40;;;;;;4262735;33;22628;-70
2021/05/30 07:18:57;;;;;;;;;;;15.30;78.10;;;;;;4287505;33;24772;-70
2021/05/30 07:21:24;;;;;;;;;;;15.30;78.20;;;;;;4287590;33;20014;-70
2021/05/30 07:23:54;;;;;;;;;;;15.30;78.10;;;;;;4288095;33;20006;-70
2021/05/30 07:26:22;;;;;;;;;;;15.30;77.90;;;;;;4288237;33;20010;-70
2021/05/30 07:28:52;;;;;;;;;;;15.30;77.90;;;;;;4274725;33;20054;-70
2021/05/30 07:31:22;;;;;;;;;;;15.40;77.90;;;;;;4275050;33;21836;-70
2021/05/30 07:33:49;;;;;;;;;;;15.40;77.90;;;;;;4287526;33;20021;-70
2021/05/30 07:36:16;;;;;;;;;;;15.40;78.00;;;;;;4287869;33;20014;-70
2021/05/30 07:38:43;;;;;;;;;;;15.40;78.00;;;;;;4287324;33;20464;-70
2021/05/30 07:41:11;;;;;;;;;;;15.40;77.70;;;;;;4276661;33;20007;-70
2021/05/30 07:43:38;;;;;;;;;;;15.40;77.90;;;;;;4291265;33;20007;-70
2021/05/30 07:46:05;;;;;;;;;;;15.50;78.10;;;;;;4278221;33;20040;-70
2021/05/30 07:48:32;;;;;;;;;;;15.50;77.80;;;;;;4290601;33;20375;-70
2021/05/30 07:50:59;;;;;;;;;;;15.50;77.50;;;;;;4277304;33;20019;-70
2021/05/30 07:53:27;;;;;;;;;;;15.50;77.50;;;;;;4290447;33;20010;-70
2021/05/30 07:55:54;;;;;;;;;;;15.50;77.60;;;;;;4290610;33;23165;-70
2021/05/30 07:58:21;;;;;;;;;;;15.50;77.60;;;;;;4277710;33;20007;-70
2021/05/30 08:00:51;;;;;;;;;;;15.60;77.70;;;;;;4290660;33;20061;-70
2021/05/30 08:03:18;;;;;;;;;;;15.60;77.80;;;;;;4290435;33;20010;-70
2021/05/30 08:05:46;;;;;;;;;;;15.60;77.60;;;;;;4289935;33;20351;-70
2021/05/30 08:08:17;;;;;;;;;;;15.60;77.50;;;;;;4290782;33;20002;-70
2021/05/30 08:10:45;;;;;;;;;;;15.60;77.50;;;;;;4266128;33;20004;-70
2021/05/30 08:13:13;;;;;;;;;;;15.60;77.60;;;;;;4277067;33;22178;-70
2021/05/30 08:15:42;;;;;;;;;;;15.60;77.60;;;;;;4277140;33;20457;-70
2021/05/30 08:18:12;;;;;;;;;;;15.70;77.70;;;;;;4277038;33;20019;-72
2021/05/30 08:20:39;;;;;;;;;;;15.70;77.60;;;;;;4290153;33;20762;-70
2021/05/30 08:23:08;;;;;;;;;;;15.70;77.50;;;;;;4276341;33;20053;-70
2021/05/30 08:25:35;;;;;;;;;;;15.70;77.40;;;;;;4290417;33;20373;-70
2021/05/30 08:28:09;;;;;;;;;;;15.70;77.20;;;;;;4277322;33;20006;-70
2021/05/30 08:30:39;;;;;;;;;;;15.70;77.30;;;;;;4289029;33;20054;-70
2021/05/30 08:33:14;;;;;;;;;;;15.80;77.10;;;;;;4276618;33;25931;-70
2021/05/30 08:35:45;;;;;;;;;;;15.80;76.80;;;;;;4290777;33;20013;-70
2021/05/30 08:38:26;;;;;;;;;;;15.80;76.90;;;;;;4290364;33;20015;-70
2021/05/30 08:41:06;;;;;;;;;;;15.80;76.10;;;;;;4276594;33;24161;-70
2021/05/30 08:43:33;;;;;;;;;;;15.90;76.40;;;;;;4290501;33;20416;-70
2021/05/30 08:46:03;;;;;;;;;;;15.90;76.30;;;;;;4277250;33;20010;-70
2021/05/30 08:48:34;;;;;;;;;;;15.90;76.20;;;;;;4277487;33;20011;-70
2021/05/30 08:51:11;;;;;;;;;;;15.90;76.00;;;;;;4289535;33;20014;-70
2021/05/30 08:53:40;;;;;;;;;;;15.90;75.80;;;;;;4277235;33;20023;-70
2021/05/30 08:56:15;;;;;;;;;;;15.90;75.80;;;;;;4276560;33;20022;-70
2021/05/30 08:58:49;;;;;;;;;;;15.90;75.80;;;;;;4289900;33;20070;-70
2021/05/30 09:01:25;;;;;;;;;;;16.00;76.00;;;;;;4277625;33;20416;-70
2021/05/30 09:03:52;;;;;;;;;;;16.00;75.60;;;;;;4275496;33;20002;-70
2021/05/30 09:06:20;;;;;;;;;;;16.00;75.70;;;;;;4274653;33;25643;-70
2021/05/30 09:08:53;;;;;;;;;;;16.00;75.80;;;;;;4262204;33;20022;-70
2021/05/30 09:11:36;;;;;;;;;;;16.10;75.70;;;;;;4263183;33;20033;-70
2021/05/30 09:14:06;;;;;;;;;;;16.10;75.50;;;;;;4275053;33;20051;-70
2021/05/30 09:16:50;;;;;;;;;;;16.10;75.60;;;;;;4262304;33;20010;-70
2021/05/30 09:19:36;;;;;;;;;;;16.10;75.60;;;;;;4274638;33;22969;-70
2021/05/30 09:22:22;;;;;;;;;;;16.20;75.40;;;;;;4275502;33;20046;-70
2021/05/30 09:24:52;;;;;;;;;;;16.20;75.20;;;;;;4275029;33;20014;-70
2021/05/30 09:27:33;;;;;;;;;;;16.20;75.50;;;;;;4275048;33;20014;-70
2021/05/30 09:30:12;;;;;;;;;;;16.20;75.80;;;;;;4275177;33;20016;-70
2021/05/30 09:32:54;;;;;;;;;;;16.20;75.70;;;;;;4275245;33;20030;-70
2021/05/30 09:35:22;;;;;;;;;;;16.30;76.00;;;;;;4262118;33;20003;-70
2021/05/30 09:38:22;;;;;;;;;;;16.30;75.70;;;;;;4274969;33;20049;-70
2021/05/30 09:40:51;;;;;;;;;;;16.30;75.60;;;;;;4243754;33;20003;-70
2021/05/30 09:43:19;;;;;;;;;;;16.30;75.80;;;;;;4262353;33;20360;-70
2021/05/30 09:46:01;;;;;;;;;;;16.40;75.90;;;;;;4274652;33;20031;-70
2021/05/30 09:48:28;;;;;;;;;;;16.30;75.60;;;;;;4275044;33;20011;-70
2021/05/30 09:53:32;;;;;;;;;;;16.40;75.60;;;;;;4274768;33;20015;-70
2021/05/30 09:56:02;;;;;;;;;;;16.40;75.60;;;;;;4250299;33;20016;-70
2021/05/30 09:58:29;;;;;;;;;;;16.40;75.60;;;;;;4274446;33;20953;-70
2021/05/30 10:00:56;;;;;;;;;;;16.40;75.50;;;;;;4274064;33;20023;-70
2021/05/30 10:03:23;;;;;;;;;;;16.50;75.60;;;;;;4272280;33;21652;-70
2021/05/30 10:05:53;;;;;;;;;;;16.50;75.70;;;;;;4288376;33;25074;-70
2021/05/30 10:08:23;;;;;;;;;;;16.50;75.70;;;;;;4288875;33;20476;-69
2021/05/30 10:10:51;;;;;;;;;;;16.50;75.60;;;;;;4276026;33;20449;-70
2021/05/30 10:13:21;;;;;;;;;;;16.60;75.60;;;;;;4288075;33;22731;-70
2021/05/30 10:15:56;;;;;;;;;;;16.60;75.60;;;;;;4288926;33;20022;-70
2021/05/30 10:18:29;;;;;;;;;;;16.60;75.60;;;;;;4275609;33;21090;-70
2021/05/30 10:21:00;;;;;;;;;;;16.60;75.50;;;;;;4288860;33;20011;-70
2021/05/30 10:23:27;;;;;;;;;;;16.60;75.40;;;;;;4276339;33;20322;-70
2021/05/30 10:26:13;;;;;;;;;;;16.70;75.10;;;;;;4275384;33;20017;-70
2021/05/30 10:28:48;;;;;;;;;;;16.70;74.90;;;;;;4288035;33;21777;-70
2021/05/30 10:31:16;;;;;;;;;;;16.70;74.90;;;;;;4275623;33;24186;-70
2021/05/30 10:34:04;;;;;;;;;;;16.80;74.60;;;;;;4275299;33;20371;-70
2021/05/30 10:36:34;;;;;;;;;;;16.80;74.70;;;;;;4288961;33;20013;-71
2021/05/30 10:39:16;;;;;;;;;;;16.80;75.60;;;;;;4288884;33;20015;-70
2021/05/30 10:42:03;;;;;;;;;;;16.80;74.70;;;;;;4263891;33;20001;-70
2021/05/30 10:44:49;;;;;;;;;;;16.90;74.70;;;;;;4275743;33;20014;-70
2021/05/30 10:47:17;;;;;;;;;;;16.90;74.70;;;;;;4288911;33;20013;-70
2021/05/30 10:50:03;;;;;;;;;;;16.90;74.40;;;;;;4275265;33;20019;-70
2021/05/30 10:52:34;;;;;;;;;;;16.90;74.10;;;;;;4288431;33;20374;-70
2021/05/30 10:55:15;;;;;;;;;;;17.00;73.80;;;;;;4275219;33;20427;-70
2021/05/30 10:57:49;;;;;;;;;;;17.00;73.80;;;;;;4275257;33;20014;-70
2021/05/30 11:00:21;;;;;;;;;;;17.00;74.00;;;;;;4275267;33;20430;-70
2021/05/30 11:03:06;;;;;;;;;;;17.00;73.90;;;;;;4275136;33;20029;-70
2021/05/30 11:05:51;;;;;;;;;;;17.10;73.60;;;;;;4274850;33;20650;-70
2021/05/30 11:08:31;;;;;;;;;;;17.10;73.10;;;;;;4288177;33;20439;-71
2021/05/30 11:11:17;;;;;;;;;;;17.10;73.10;;;;;;4288350;33;20028;-70
2021/05/30 11:13:54;;;;;;;;;;;17.20;72.40;;;;;;4274863;33;21578;-70
2021/05/30 11:16:33;;;;;;;;;;;17.20;72.70;;;;;;4288024;33;20040;-70
2021/05/30 11:19:02;;;;;;;;;;;17.20;72.70;;;;;;4275342;33;20032;-70
2021/05/30 11:21:30;;;;;;;;;;;17.20;72.70;;;;;;4287881;33;20416;-70
2021/05/30 11:23:58;;;;;;;;;;;17.20;72.00;;;;;;4287789;33;22805;-70
2021/05/30 11:26:26;;;;;;;;;;;17.30;72.20;;;;;;4274832;33;23678;-71
2021/05/30 11:28:53;;;;;;;;;;;17.30;72.20;;;;;;4287941;33;23632;-70
2021/05/30 11:31:21;;;;;;;;;;;17.30;72.00;;;;;;4274108;33;31246;-70
2021/05/30 11:33:56;;;;;;;;;;;17.40;71.80;;;;;;4274405;33;26408;-70
2021/05/30 11:36:23;;;;;;;;;;;17.40;72.40;;;;;;4287382;33;20053;-70
2021/05/30 11:38:55;;;;;;;;;;;17.40;71.50;;;;;;4274452;33;20936;-71
2021/05/30 11:41:24;;;;;;;;;;;17.40;71.20;;;;;;4287929;33;20404;-70
2021/05/30 11:43:54;;;;;;;;;;;17.50;71.40;;;;;;4274445;33;20022;-70
2021/05/30 11:46:24;;;;;;;;;;;17.50;71.50;;;;;;4275000;33;20385;-70
2021/05/30 11:49:01;;;;;;;;;;;17.50;70.60;;;;;;4287631;33;20023;-70
2021/05/30 11:51:45;;;;;;;;;;;17.60;70.40;;;;;;4288201;33;20015;-70
2021/05/30 11:54:12;;;;;;;;;;;17.60;70.70;;;;;;4275076;33;20036;-70
2021/05/30 11:56:40;;;;;;;;;;;17.60;69.50;;;;;;4287984;33;20002;-70
2021/05/30 11:59:08;;;;;;;;;;;17.70;69.90;;;;;;4287846;33;20014;-70
2021/05/30 12:01:50;;;;;;;;;;;17.70;69.30;;;;;;4287330;33;20003;-70
2021/05/30 12:04:33;;;;;;;;;;;17.70;69.60;;;;;;4287613;33;21339;-70
2021/05/30 12:07:03;;;;;;;;;;;17.80;69.90;;;;;;4275042;33;20443;-70
2021/05/30 12:09:46;;;;;;;;;;;17.80;69.80;;;;;;4274677;33;20033;-70
2021/05/30 12:12:22;;;;;;;;;;;17.80;70.50;;;;;;4286910;33;43610;-70
2021/05/30 12:14:51;;;;;;;;;;;17.90;69.70;;;;;;4287735;33;22402;-70
2021/05/30 12:17:18;;;;;;;;;;;17.90;69.70;;;;;;4287759;33;20415;-70
2021/05/30 12:19:46;;;;;;;;;;;17.90;69.20;;;;;;4287093;33;20408;-70
2021/05/30 12:22:23;;;;;;;;;;;17.90;69.10;;;;;;4287207;33;25037;-70
2021/05/30 12:24:51;;;;;;;;;;;17.90;69.10;;;;;;4287199;33;32524;-70
2021/05/30 12:27:20;;;;;;;;;;;18.00;68.50;;;;;;4288328;33;44675;-71
2021/05/30 12:29:51;;;;;;;;;;;18.00;68.80;;;;;;4289816;33;43359;-70
2021/05/30 12:32:19;;;;;;;;;;;18.10;68.60;;;;;;4275891;33;44482;-70
2021/05/30 12:34:49;;;;;;;;;;;18.10;68.60;;;;;;4289934;33;20470;-70
2021/05/30 12:37:17;;;;;;;;;;;18.20;67.90;;;;;;4275963;33;36871;-70
2021/05/30 12:39:44;;;;;;;;;;;18.20;68.20;;;;;;4290278;33;20046;-71
2021/05/30 12:42:15;;;;;;;;;;;18.20;67.80;;;;;;4276565;33;44060;-71
2021/05/30 12:44:44;;;;;;;;;;;18.20;67.80;;;;;;4276318;33;45019;-71
2021/05/30 12:47:20;;;;;;;;;;;18.30;67.50;;;;;;4276162;33;43022;-70
2021/05/30 12:49:54;;;;;;;;;;;18.30;67.40;;;;;;4276055;33;42952;-71
2021/05/30 12:52:41;;;;;;;;;;;18.30;67.00;;;;;;4277577;33;20054;-71
2021/05/30 12:55:09;;;;;;;;;;;18.40;67.00;;;;;;4289354;33;42826;-70
2021/05/30 12:57:43;;;;;;;;;;;18.40;66.70;;;;;;4277115;33;20043;-70
2021/05/30 13:00:12;;;;;;;;;;;18.40;66.70;;;;;;4289007;33;43890;-70
2021/05/30 13:02:54;;;;;;;;;;;18.50;66.30;;;;;;4290016;33;20082;-71
2021/05/30 13:05:31;;;;;;;;;;;18.50;66.20;;;;;;4289998;33;20024;-70
2021/05/30 13:07:58;;;;;;;;;;;18.50;66.20;;;;;;4289150;33;36038;-70
2021/05/30 13:10:25;;;;;;;;;;;18.50;66.10;;;;;;4288634;33;43345;-70
2021/05/30 13:12:52;;;;;;;;;;;18.60;65.60;;;;;;4275865;33;44732;-71
2021/05/30 13:15:27;;;;;;;;;;;18.60;65.70;;;;;;4288902;33;42538;-71
2021/05/30 13:18:01;;;;;;;;;;;18.70;65.70;;;;;;4288281;33;43294;-71
2021/05/30 13:20:28;;;;;;;;;;;18.70;65.70;;;;;;4288827;33;44688;-71
2021/05/30 13:23:18;;;;;;;;;;;18.80;65.50;;;;;;4288592;33;43756;-70
2021/05/30 13:25:49;;;;;;;;;;;18.80;65.10;;;;;;4282148;33;20110;-71
2021/05/30 13:28:23;;;;;;;;;;;18.80;64.70;;;;;;4276692;33;20025;-71
2021/05/30 13:30:58;;;;;;;;;;;18.90;64.60;;;;;;4275847;33;41352;-70
2021/05/30 13:33:47;;;;;;;;;;;18.90;63.90;;;;;;4288961;33;34600;-70
2021/05/30 13:36:15;;;;;;;;;;;18.90;63.30;;;;;;4288849;33;33532;-71
2021/05/30 13:38:42;;;;;;;;;;;19.00;63.70;;;;;;4274899;33;44613;-70
2021/05/30 13:41:24;;;;;;;;;;;19.00;63.90;;;;;;4274962;33;44221;-70
2021/05/30 13:43:52;;;;;;;;;;;19.10;64.60;;;;;;4274958;33;43959;-70
2021/05/30 13:46:19;;;;;;;;;;;19.10;63.60;;;;;;4275405;33;44250;-71
2021/05/30 13:48:47;;;;;;;;;;;19.10;63.40;;;;;;4288058;33;44068;-70
2021/05/30 13:51:14;;;;;;;;;;;19.20;62.60;;;;;;4288383;33;44940;-70
2021/05/30 13:53:43;;;;;;;;;;;19.20;62.80;;;;;;4287882;33;44094;-70
2021/05/30 13:56:13;;;;;;;;;;;19.20;62.50;;;;;;4288508;33;22104;-70
2021/05/30 13:58:41;;;;;;;;;;;19.20;61.80;;;;;;4288215;33;43825;-70
2021/05/30 14:01:09;;;;;;;;;;;19.30;62.40;;;;;;4274748;33;43426;-70
2021/05/30 14:03:37;;;;;;;;;;;19.30;62.50;;;;;;4287875;33;44789;-70
2021/05/30 14:06:05;;;;;;;;;;;19.30;62.50;;;;;;4287782;33;40493;-70
2021/05/30 14:08:33;;;;;;;;;;;19.30;61.50;;;;;;4287642;33;44044;-70
2021/05/30 14:11:00;;;;;;;;;;;19.40;60.70;;;;;;4288242;33;45007;-70
2021/05/30 14:13:27;;;;;;;;;;;19.40;61.40;;;;;;4287579;33;42393;-70
2021/05/30 14:15:55;;;;;;;;;;;19.40;60.60;;;;;;4274438;33;45634;-70
2021/05/30 14:18:22;;;;;;;;;;;19.50;59.90;;;;;;4274355;33;44480;-70
2021/05/30 14:20:52;;;;;;;;;;;19.50;59.70;;;;;;4287691;33;42410;-70
2021/05/30 14:23:19;;;;;;;;;;;19.50;59.50;;;;;;4287513;33;40767;-70
2021/05/30 14:25:48;;;;;;;;;;;19.50;59.30;;;;;;4288150;33;37036;-70
2021/05/30 14:28:15;;;;;;;;;;;19.60;59.80;;;;;;4287746;33;42778;-71
2021/05/30 14:30:42;;;;;;;;;;;19.60;59.00;;;;;;4287531;33;43653;-70
2021/05/30 14:33:09;;;;;;;;;;;19.60;59.60;;;;;;4287437;33;44980;-70
2021/05/30 14:35:36;;;;;;;;;;;19.70;59.10;;;;;;4274336;33;42453;-70